Time;durP1;ratioP1;P1;durP2;ratioP2;P2;SDS_P1;SDS_P2;PMS_P1;PMS_P2;Temp;Humidity;BMP_temperature;BMP_pressure;BME280_temperature;BME280_humidity;BME280_pressure;Samples;Min_cycle;Max_cycle;Signal;HPM_P1;HPM_P2
2022/12/28 00:01:26;;;;;;;10.88;3.05;;;;;;;-0.77;100.00;99957.19;4379964;32;20197;-94
2022/12/28 00:03:53;;;;;;;6.07;3.25;;;;;;;-0.81;100.00;99958.13;4379906;32;20117;-94
2022/12/28 00:06:22;;;;;;;6.43;3.30;;;;;;;-0.77;100.00;99958.03;4393578;32;20086;-94
2022/12/28 00:08:54;;;;;;;6.22;3.22;;;;;;;-0.70;100.00;99955.31;4393406;32;20098;-95
2022/12/28 00:11:23;;;;;;;8.05;3.15;;;;;;;-0.64;100.00;99955.16;4393401;32;20119;-95
2022/12/28 00:13:58;;;;;;;5.60;2.80;;;;;;;-0.67;100.00;99956.06;4393251;32;20679;-94
2022/12/28 00:16:27;;;;;;;6.78;3.25;;;;;;;-0.74;100.00;99957.13;4379576;32;20098;-94
2022/12/28 00:18:58;;;;;;;7.20;3.25;;;;;;;-0.73;100.00;99966.50;4393044;32;20106;-94
2022/12/28 00:21:27;;;;;;;6.00;2.60;;;;;;;-0.75;100.00;99965.72;4393498;32;20490;-94
2022/12/28 00:23:56;;;;;;;4.22;2.42;;;;;;;-0.71;100.00;99959.62;4379736;32;20161;-95
2022/12/28 00:26:26;;;;;;;6.28;2.72;;;;;;;-0.71;100.00;99962.19;4393241;32;20082;-94
2022/12/28 00:28:53;;;;;;;5.47;2.85;;;;;;;-0.72;100.00;99960.47;4379723;32;20107;-94
2022/12/28 00:31:30;;;;;;;6.40;2.70;;;;;;;-0.69;100.00;99960.41;4380574;32;20177;-95
2022/12/28 00:33:57;;;;;;;10.93;2.90;;;;;;;-0.64;100.00;99958.56;4379380;32;20130;-94
2022/12/28 00:36:24;;;;;;;7.25;3.05;;;;;;;-0.67;100.00;99963.78;4392953;32;20082;-94
2022/12/28 00:39:12;;;;;;;8.25;3.25;;;;;;;-0.60;100.00;99967.06;4393211;32;20078;-94
2022/12/28 00:41:39;;;;;;;9.10;3.08;;;;;;;-0.51;100.00;99963.44;4379250;32;20114;-94
2022/12/28 00:44:07;;;;;;;5.72;2.92;;;;;;;-0.43;100.00;99958.94;4392645;32;20094;-94
2022/12/28 00:46:36;;;;;;;6.47;2.42;;;;;;;-0.30;100.00;99965.47;4392850;32;20464;-94
2022/12/28 00:49:03;;;;;;;6.62;2.83;;;;;;;-0.18;100.00;99974.62;4392883;32;20126;-94
2022/12/28 00:51:32;;;;;;;6.35;3.12;;;;;;;-0.07;100.00;99971.75;4379216;32;20537;-94
2022/12/28 00:53:59;;;;;;;6.60;3.45;;;;;;;-0.02;100.00;99969.91;4393085;32;20165;-94
2022/12/28 00:56:26;;;;;;;10.80;3.47;;;;;;;0.02;100.00;99971.50;4379131;32;20145;-93
2022/12/28 00:58:58;;;;;;;7.15;3.62;;;;;;;-0.02;100.00;99975.03;4392610;32;20146;-95
2022/12/28 01:01:26;;;;;;;6.53;2.92;;;;;;;-0.03;100.00;99973.34;4378707;32;20133;-94
2022/12/28 01:03:57;;;;;;;7.50;3.67;;;;;;;-0.06;100.00;99976.00;4379442;32;20098;-94
2022/12/28 01:06:25;;;;;;;9.63;3.78;;;;;;;-0.02;100.00;99982.78;4392800;32;20091;-94
2022/12/28 01:08:53;;;;;;;10.38;3.97;;;;;;;-0.05;100.00;99981.13;4389088;32;20095;-94
2022/12/28 01:11:26;;;;;;;8.00;4.10;;;;;;;-0.12;100.00;99986.47;4364169;32;20173;-93
2022/12/28 01:13:56;;;;;;;8.95;4.00;;;;;;;-0.12;100.00;99979.59;4364234;32;20118;-95
2022/12/28 01:16:30;;;;;;;8.95;3.87;;;;;;;-0.20;100.00;99979.81;4377609;32;20122;-95
2022/12/28 01:18:59;;;;;;;7.20;3.33;;;;;;;-0.25;100.00;99979.06;4377414;32;20103;-93
2022/12/28 01:21:28;;;;;;;7.50;3.55;;;;;;;-0.25;100.00;99973.91;4363849;32;20464;-94
2022/12/28 01:24:01;;;;;;;8.85;4.32;;;;;;;-0.28;100.00;99981.72;4376131;32;20221;-95
2022/12/28 01:26:30;;;;;;;8.13;4.07;;;;;;;-0.31;100.00;99973.22;4377468;32;20070;-94
2022/12/28 01:28:58;;;;;;;5.75;3.33;;;;;;;-0.40;100.00;99980.28;4375953;32;20154;-93
2022/12/28 01:31:25;;;;;;;9.73;3.60;;;;;;;-0.40;100.00;99984.59;4377402;32;20138;-93
2022/12/28 01:33:54;;;;;;;6.72;3.10;;;;;;;-0.39;100.00;99982.00;4377202;32;20094;-94
2022/12/28 01:36:26;;;;;;;9.13;3.35;;;;;;;-0.43;100.00;99984.69;4377172;32;20106;-93
2022/12/28 01:38:56;;;;;;;5.32;2.53;;;;;;;-0.37;100.00;99989.66;4377338;32;20137;-94
2022/12/28 01:41:24;;;;;;;6.45;2.67;;;;;;;-0.30;100.00;99980.91;4377037;32;20166;-93
2022/12/28 01:43:51;;;;;;;7.07;2.65;;;;;;;-0.22;100.00;99973.00;4387164;32;20113;-94
2022/12/28 01:46:24;;;;;;;4.50;2.37;;;;;;;-0.13;100.00;99969.34;4392199;32;20090;-94
2022/12/28 01:49:31;;;;;;;7.40;3.10;;;;;;;-0.10;100.00;99972.66;4391991;32;20478;-94
2022/12/28 01:52:07;;;;;;;3.70;1.95;;;;;;;0.03;100.00;99972.34;4374613;32;20107;-94
2022/12/28 01:54:44;;;;;;;5.68;2.10;;;;;;;0.10;100.00;99961.00;4374533;32;20137;-94
2022/12/28 01:57:13;;;;;;;5.95;2.25;;;;;;;0.13;100.00;99954.03;4362512;32;20159;-94
2022/12/28 01:59:43;;;;;;;7.53;2.33;;;;;;;0.14;100.00;99958.28;4374433;32;20484;-93
2022/12/28 02:02:12;;;;;;;3.90;1.87;;;;;;;0.13;100.00;99951.44;4374775;32;20111;-94
2022/12/28 02:04:41;;;;;;;4.45;2.17;;;;;;;0.14;100.00;99945.41;4337992;32;20129;-94
2022/12/28 02:07:08;;;;;;;6.43;3.25;;;;;;;0.19;100.00;99936.72;4374400;32;20120;-94
2022/12/28 02:09:40;;;;;;;5.60;2.70;;;;;;;0.20;100.00;99943.53;4374320;32;20114;-93
2022/12/28 02:12:09;;;;;;;6.45;2.65;;;;;;;0.16;100.00;99947.94;4374454;32;20175;-94
2022/12/28 02:14:38;;;;;;;4.95;2.35;;;;;;;0.14;100.00;99945.41;4350919;32;20186;-94
2022/12/28 02:17:08;;;;;;;6.10;2.42;;;;;;;0.12;100.00;99941.19;4364575;32;20120;-94
2022/12/28 02:19:46;;;;;;;4.35;1.90;;;;;;;0.11;100.00;99939.50;4364201;32;20111;-94
2022/12/28 02:22:45;;;;;;;4.97;2.08;;;;;;;0.10;100.00;99933.50;4364071;32;20125;-94
2022/12/28 02:25:21;;;;;;;7.32;2.42;;;;;;;0.12;100.00;99934.31;4379592;32;20162;-94
2022/12/28 02:28:13;;;;;;;5.80;2.40;;;;;;;0.14;100.00;99929.94;4393801;32;20106;-93
2022/12/28 02:30:54;;;;;;;4.90;2.17;;;;;;;0.10;100.00;99936.06;4394098;32;20124;-93
2022/12/28 02:33:25;;;;;;;9.38;1.92;;;;;;;0.07;100.00;99943.88;4380295;32;20503;-94
2022/12/28 02:36:04;;;;;;;2.80;1.75;;;;;;;0.11;100.00;99940.34;4393920;32;20095;-94
2022/12/28 02:38:38;;;;;;;6.53;2.42;;;;;;;0.17;100.00;99941.91;4380391;32;20087;-93
2022/12/28 02:41:08;;;;;;;3.67;1.70;;;;;;;0.18;100.00;99930.69;4380387;32;20459;-93
2022/12/28 02:43:37;;;;;;;5.57;2.03;;;;;;;0.27;100.00;99933.03;4380172;32;20110;-94
2022/12/28 02:51:56;;;;;;;3.85;2.00;;;;;;;0.02;100.00;99942.34;4393872;32;20091;-94
2022/12/28 02:58:09;;;;;;;3.50;1.80;;;;;;;0.11;100.00;99940.34;4393673;32;20143;-94
2022/12/28 03:00:58;;;;;;;5.37;2.22;;;;;;;0.00;100.00;99929.50;4393484;32;20078;-93
2022/12/28 03:03:33;;;;;;;2.85;2.10;;;;;;;-0.08;100.00;99929.69;4393726;32;20436;-93
2022/12/28 03:09:27;;;;;;;6.00;2.55;;;;;;;-0.19;100.00;99931.72;4387305;32;20087;-95
2022/12/28 03:12:03;;;;;;;3.55;1.87;;;;;;;-0.34;100.00;99934.69;4377663;32;20145;-94
2022/12/28 03:14:37;;;;;;;6.80;2.00;;;;;;;-0.62;100.00;99933.66;4365023;32;20129;-94
2022/12/28 03:31:15;;;;;;;6.50;2.70;;;;;;;-0.69;100.00;99919.25;4377738;32;20103;-93
2022/12/28 03:33:45;;;;;;;6.00;2.72;;;;;;;-0.68;100.00;99913.22;4365001;32;20142;-93
2022/12/28 03:36:18;;;;;;;5.37;2.75;;;;;;;-0.64;100.00;99919.97;4377321;32;20408;-94
2022/12/28 03:38:52;;;;;;;5.95;3.03;;;;;;;-0.63;100.00;99906.22;4378693;32;20130;-93
2022/12/28 03:41:29;;;;;;;7.07;2.65;;;;;;;-0.66;100.00;99906.28;4377250;32;20083;-94
2022/12/28 03:43:59;;;;;;;7.53;3.15;;;;;;;-0.57;100.00;99898.34;4387627;32;20493;-94
2022/12/28 03:46:31;;;;;;;5.85;2.30;;;;;;;-0.55;100.00;99896.56;4392361;32;20501;-94
2022/12/28 03:48:59;;;;;;;7.65;2.55;;;;;;;-0.75;100.00;99901.37;4392218;32;20176;-94
2022/12/28 03:51:28;;;;;;;7.35;2.90;;;;;;;-0.96;100.00;99913.03;4379854;32;20094;-95
2022/12/28 03:53:57;;;;;;;8.45;2.80;;;;;;;-1.08;100.00;99904.72;4393525;32;20087;-94
2022/12/28 03:56:26;;;;;;;6.00;2.85;;;;;;;-1.11;100.00;99898.81;4392266;32;20094;-94
2022/12/28 03:58:55;;;;;;;7.25;2.67;;;;;;;-1.15;100.00;99895.47;4393380;32;20174;-94
2022/12/28 04:01:22;;;;;;;5.20;2.53;;;;;;;-1.21;100.00;99892.16;4380042;32;20156;-94
2022/12/28 04:03:50;;;;;;;7.43;2.80;;;;;;;-1.27;100.00;99896.59;4392368;32;20110;-94
2022/12/28 04:06:18;;;;;;;13.62;2.70;;;;;;;-1.27;100.00;99895.75;4392042;32;20137;-94
2022/12/28 04:08:46;;;;;;;5.07;2.28;;;;;;;-1.31;100.00;99892.38;4393154;32;20097;-94
2022/12/28 04:11:13;;;;;;;5.30;2.30;;;;;;;-1.35;100.00;99884.78;4393538;32;20090;-94
2022/12/28 04:13:41;;;;;;;4.65;2.53;;;;;;;-1.43;100.00;99878.06;4380076;32;20078;-94
2022/12/28 04:16:12;;;;;;;6.22;2.35;;;;;;;-1.41;100.00;99885.75;4393381;32;20155;-94
2022/12/28 04:18:40;;;;;;;6.12;2.55;;;;;;;-1.35;100.00;99875.34;4379909;32;20099;-94
2022/12/28 04:21:09;;;;;;;3.67;2.17;;;;;;;-1.32;100.00;99877.00;4391971;32;20106;-94
2022/12/28 04:23:37;;;;;;;5.78;2.65;;;;;;;-1.33;100.00;99872.72;4382460;32;20109;-95
2022/12/28 04:26:10;;;;;;;7.35;1.98;;;;;;;-1.33;100.00;99876.16;4395170;32;20106;-94
2022/12/28 04:28:39;;;;;;;6.47;2.67;;;;;;;-1.31;100.00;99861.53;4395346;32;20169;-94
2022/12/28 04:31:10;;;;;;;4.53;2.10;;;;;;;-1.34;100.00;99869.31;4408878;32;20549;-94
2022/12/28 04:33:40;;;;;;;8.70;2.80;;;;;;;-1.36;100.00;99860.81;4408708;32;20100;-94
2022/12/28 04:36:12;;;;;;;5.20;2.25;;;;;;;-1.39;100.00;99863.44;4393907;32;20129;-94
2022/12/28 04:38:40;;;;;;;5.12;2.35;;;;;;;-1.42;100.00;99860.94;4408724;32;20112;-95
2022/12/28 04:41:08;;;;;;;4.60;2.10;;;;;;;-1.46;100.00;99860.16;4407322;32;20169;-94
2022/12/28 04:43:36;;;;;;;4.43;2.00;;;;;;;-1.49;100.00;99859.38;4408396;32;20112;-94
2022/12/28 04:46:05;;;;;;;5.28;2.12;;;;;;;-1.47;100.00;99865.31;4382154;32;20107;-94
2022/12/28 04:48:33;;;;;;;3.72;1.75;;;;;;;-1.47;100.00;99865.31;4394885;32;20797;-95
2022/12/28 04:51:16;;;;;;;4.82;1.45;;;;;;;-1.31;100.00;99868.41;4394613;32;20538;-94
2022/12/28 04:53:43;;;;;;;6.15;2.55;;;;;;;-1.23;100.00;99860.53;4408660;32;20149;-95
2022/12/28 04:56:11;;;;;;;5.80;2.03;;;;;;;-1.32;100.00;99875.28;4407267;32;20109;-94
2022/12/28 04:58:39;;;;;;;4.43;2.25;;;;;;;-1.33;100.00;99865.00;4408385;32;20101;-94
2022/12/28 05:01:12;;;;;;;4.80;2.12;;;;;;;-1.26;100.00;99864.87;4394731;32;20102;-94
2022/12/28 05:03:41;;;;;;;6.00;2.00;;;;;;;-1.10;100.00;99862.75;4395414;32;20133;-96
2022/12/28 05:06:14;;;;;;;5.75;2.10;;;;;;;-1.01;100.00;99873.72;4381288;32;20118;-92
2022/12/28 05:08:42;;;;;;;4.15;2.05;;;;;;;-1.06;100.00;99873.81;4407341;32;20106;-93
2022/12/28 05:11:13;;;;;;;3.03;1.60;;;;;;;-1.02;100.00;99870.28;4393617;32;20102;-93
2022/12/28 05:13:40;;;;;;;6.55;1.83;;;;;;;-1.01;100.00;99859.13;4407074;32;20078;-92
2022/12/28 05:16:11;;;;;;;5.30;2.10;;;;;;;-1.05;100.00;99865.22;4407441;32;20110;-92
2022/12/28 05:18:39;;;;;;;6.03;1.75;;;;;;;-0.99;100.00;99867.66;4407436;32;20516;-92
2022/12/28 05:21:08;;;;;;;3.47;1.80;;;;;;;-0.89;100.00;99868.28;4406776;32;20368;-92
2022/12/28 05:23:37;;;;;;;5.93;1.65;;;;;;;-0.83;100.00;99865.56;4381132;32;20099;-93
2022/12/28 05:26:06;;;;;;;6.80;2.80;;;;;;;-0.78;100.00;99868.00;4406886;32;20136;-93
2022/12/28 05:28:33;;;;;;;6.50;2.45;;;;;;;-0.85;100.00;99871.63;4393719;32;20110;-92
2022/12/28 05:31:03;;;;;;;5.72;1.98;;;;;;;-0.75;100.00;99870.50;4407028;32;20160;-92
2022/12/28 05:33:32;;;;;;;4.43;1.75;;;;;;;-0.78;100.00;99861.13;4407116;32;20144;-94
2022/12/28 05:36:06;;;;;;;4.20;1.58;;;;;;;-0.69;100.00;99865.19;4406936;32;20459;-92
2022/12/28 05:38:34;;;;;;;3.37;1.40;;;;;;;-0.72;100.00;99855.81;4406896;32;20394;-92
2022/12/28 05:41:08;;;;;;;2.97;1.52;;;;;;;-0.74;100.00;99851.63;4406910;32;20545;-92
2022/12/28 05:43:36;;;;;;;;;;;;;;;-0.77;100.00;99859.41;4406880;32;20144;-92
2022/12/28 05:46:14;;;;;;;4.20;1.73;;;;;;;-0.78;100.00;99857.72;4407065;32;20313;-94
2022/12/28 05:48:42;;;;;;;1.85;1.23;;;;;;;-0.87;100.00;99863.09;4407231;32;20490;-93
2022/12/28 05:51:12;;;;;;;3.10;1.48;;;;;;;-1.01;100.00;99859.13;4408824;32;20107;-93
2022/12/28 05:53:40;;;;;;;5.15;1.60;;;;;;;-1.10;100.00;99855.06;4383018;32;20507;-92
2022/12/28 05:56:11;;;;;;;4.65;1.80;;;;;;;-1.20;100.00;99868.16;4408704;32;20116;-92
2022/12/28 05:58:45;;;;;;;4.70;1.67;;;;;;;-1.28;100.00;99871.75;4395383;32;20102;-92
2022/12/28 06:01:18;;;;;;;2.47;1.55;;;;;;;-1.33;100.00;99873.59;4408678;32;20090;-93
2022/12/28 06:03:46;;;;;;;4.45;1.90;;;;;;;-1.31;100.00;99873.56;4408842;32;20517;-93
2022/12/28 06:06:16;;;;;;;3.55;1.60;;;;;;;-1.40;100.00;99879.75;4395138;32;20125;-92
2022/12/28 06:08:44;;;;;;;3.53;1.80;;;;;;;-1.48;100.00;99873.94;4408694;32;20628;-92
2022/12/28 06:11:17;;;;;;;5.18;2.33;;;;;;;-1.48;100.00;99873.94;4408559;32;20153;-91
2022/12/28 06:13:45;;;;;;;7.72;2.50;;;;;;;-1.49;100.00;99867.09;4408705;32;20083;-93
2022/12/28 06:16:17;;;;;;;5.47;2.58;;;;;;;-1.51;100.00;99869.69;4408353;32;20400;-92
2022/12/28 06:18:45;;;;;;;6.00;2.45;;;;;;;-1.52;100.00;99865.44;4408736;32;20375;-93
2022/12/28 06:21:18;;;;;;;5.53;2.42;;;;;;;-1.55;100.00;99868.06;4408369;32;20532;-93
2022/12/28 06:23:45;;;;;;;3.92;1.65;;;;;;;-1.57;100.00;99874.16;4394966;32;20125;-92
2022/12/28 06:26:16;;;;;;;5.45;1.80;;;;;;;-1.55;100.00;99874.94;4395275;32;20102;-93
2022/12/28 06:28:44;;;;;;;4.20;1.48;;;;;;;-1.51;100.00;99866.31;4408746;32;20152;-92
2022/12/28 06:31:14;;;;;;;3.40;1.60;;;;;;;-1.44;100.00;99862.69;4408528;32;20512;-93
2022/12/28 06:33:42;;;;;;;2.42;1.20;;;;;;;-1.39;100.00;99868.59;4408789;32;20188;-93
2022/12/28 06:36:15;;;;;;;2.90;1.48;;;;;;;-1.25;100.00;99870.84;4408507;32;20553;-93
2022/12/28 06:38:47;;;;;;;4.25;2.00;;;;;;;-1.15;100.00;99876.59;4408663;32;20116;-94
2022/12/28 06:41:16;;;;;;;2.75;1.73;;;;;;;-1.14;100.00;99875.72;4394721;32;20394;-92
2022/12/28 06:43:44;;;;;;;5.57;2.05;;;;;;;-1.10;100.00;99883.34;4408252;32;20469;-92
2022/12/28 06:46:13;;;;;;;8.20;2.60;;;;;;;-1.09;100.00;99887.59;4408396;32;20160;-93
2022/12/28 06:48:41;;;;;;;12.40;2.90;;;;;;;-1.04;100.00;99874.62;4408603;32;20094;-94
2022/12/28 06:51:12;;;;;;;12.30;3.55;;;;;;;-1.08;100.00;99876.41;4408378;32;20124;-92
2022/12/28 06:53:40;;;;;;;7.18;3.17;;;;;;;-1.10;100.00;99885.06;4408424;32;20082;-94
2022/12/28 06:56:11;;;;;;;8.43;3.78;;;;;;;-1.13;100.00;99891.12;4407193;32;20117;-91
2022/12/28 06:58:39;;;;;;;7.37;3.47;;;;;;;-1.12;100.00;99886.81;4408446;32;20094;-92
2022/12/28 07:01:13;;;;;;;6.40;3.62;;;;;;;-1.05;100.00;99884.97;4394180;32;20153;-92
2022/12/28 07:03:42;;;;;;;9.68;4.50;;;;;;;-1.00;100.00;99886.56;4408554;32;20116;-92
2022/12/28 07:06:11;;;;;;;10.88;4.65;;;;;;;-0.96;100.00;99877.84;4408244;32;20110;-92
2022/12/28 07:08:39;;;;;;;8.70;3.95;;;;;;;-0.85;100.00;99884.47;4394723;32;20522;-92
2022/12/28 07:11:12;;;;;;;7.07;3.03;;;;;;;-0.75;100.00;99873.91;4408233;32;20094;-92
2022/12/28 07:13:40;;;;;;;7.57;3.30;;;;;;;-0.62;100.00;99877.03;4394582;32;20090;-92
2022/12/28 07:16:12;;;;;;;7.72;3.67;;;;;;;-0.48;100.00;99873.28;4408252;32;20106;-92
2022/12/28 07:18:41;;;;;;;7.07;3.20;;;;;;;-0.35;100.00;99879.75;4408377;32;21000;-92
2022/12/28 07:21:20;;;;;;;8.98;3.08;;;;;;;-0.20;100.00;99878.50;4394430;32;20421;-92
2022/12/28 07:23:48;;;;;;;9.55;3.05;;;;;;;-0.03;100.00;99872.88;4408352;32;20119;-93
2022/12/28 07:26:19;;;;;;;7.35;3.03;;;;;;;0.11;100.00;99877.69;4408541;32;20530;-93
2022/12/28 07:28:48;;;;;;;7.50;3.37;;;;;;;0.21;100.00;99865.34;4408378;32;20451;-93
2022/12/28 07:31:18;;;;;;;10.32;4.07;;;;;;;0.36;100.00;99867.47;4408302;32;20458;-93
2022/12/28 07:33:46;;;;;;;13.40;4.78;;;;;;;0.43;100.00;99873.31;4408338;32;20120;-93
2022/12/28 07:36:16;;;;;;;12.52;5.18;;;;;;;0.58;100.00;99869.44;4382212;32;20133;-93
2022/12/28 07:38:43;;;;;;;10.15;5.25;;;;;;;0.70;100.00;99861.31;4408732;32;20110;-96
2022/12/28 07:41:15;;;;;;;17.40;8.93;;;;;;;0.82;100.00;99868.66;4407091;32;20149;-93
2022/12/28 07:43:43;;;;;;;14.77;7.97;;;;;;;0.95;100.00;99868.28;4408118;32;20149;-94
2022/12/28 07:46:12;;;;;;;16.15;8.02;;;;;;;1.01;100.00;99870.66;4408218;32;20133;-93
2022/12/28 07:48:41;;;;;;;19.08;8.13;;;;;;;1.07;100.00;99870.44;4408098;32;20584;-93
2022/12/28 07:51:23;;;;;;;14.40;6.82;;;;;;;1.08;100.00;99869.56;4407869;32;20163;-93
2022/12/28 07:53:52;;;;;;;14.65;6.43;;;;;;;1.13;100.00;99874.56;4408379;32;20086;-94
2022/12/28 07:56:20;;;;;;;10.18;4.80;;;;;;;1.17;100.00;99874.44;4369684;32;20174;-93
2022/12/28 07:58:51;;;;;;;9.60;3.83;;;;;;;1.22;100.00;99882.84;4394520;32;20122;-94
2022/12/28 08:01:21;;;;;;;11.10;3.90;;;;;;;1.28;100.00;99889.56;4403109;32;174942;-94
2022/12/28 08:03:52;;;;;;;9.80;4.60;;;;;;;1.36;100.00;99891.88;4394770;32;20086;-94
2022/12/28 08:06:22;;;;;;;10.32;4.87;;;;;;;1.52;100.00;99893.06;4408453;32;20099;-93
2022/12/28 08:08:52;;;;;;;11.10;5.18;;;;;;;1.64;100.00;99896.13;4394508;32;20531;-94
2022/12/28 08:11:21;;;;;;;13.15;5.97;;;;;;;1.71;100.00;99907.91;4393395;32;20470;-94
2022/12/28 08:13:49;;;;;;;13.40;5.30;;;;;;;1.81;100.00;99892.97;4407933;32;20086;-93
2022/12/28 08:16:18;;;;;;;9.43;4.40;;;;;;;1.91;100.00;99895.16;4408024;32;20193;-92
2022/12/28 08:18:46;;;;;;;9.43;3.95;;;;;;;1.88;100.00;99887.50;4407855;32;20214;-92
2022/12/28 08:21:19;;;;;;;12.05;4.82;;;;;;;2.03;100.00;99893.03;4412699;32;20174;-91
2022/12/28 08:23:47;;;;;;;10.60;4.57;;;;;;;2.16;100.00;99883.94;4423017;32;20103;-91
2022/12/28 08:26:17;;;;;;;9.80;4.80;;;;;;;2.26;100.00;99885.28;4422986;32;20535;-93
2022/12/28 08:28:46;;;;;;;9.98;4.87;;;;;;;2.32;100.00;99879.03;4423358;32;20132;-92
2022/12/28 08:31:17;;;;;;;14.25;4.85;;;;;;;2.50;100.00;99877.50;4409186;32;20111;-92
2022/12/28 08:33:44;;;;;;;10.52;4.55;;;;;;;2.51;100.00;99876.59;4422957;32;20077;-93
2022/12/28 08:36:11;;;;;;;7.30;3.75;;;;;;;2.55;100.00;99873.00;4422996;32;20102;-92
2022/12/28 08:38:40;;;;;;;9.38;5.12;;;;;;;2.65;100.00;99876.09;4422831;32;20523;-92
2022/12/28 08:41:11;;;;;;;14.18;5.90;;;;;;;2.72;100.00;99871.50;4423027;32;20101;-93
2022/12/28 08:43:40;;;;;;;11.82;6.10;;;;;;;2.75;100.00;99884.31;4422601;32;20675;-93
2022/12/28 08:46:20;;;;;;;13.20;5.40;;;;;;;2.82;100.00;99885.75;4422872;32;20128;-92
2022/12/28 08:48:48;;;;;;;13.95;5.75;;;;;;;2.95;100.00;99888.69;4422940;32;20094;-93
2022/12/28 08:51:20;;;;;;;14.18;6.15;;;;;;;3.07;100.00;99874.44;4408850;32;20119;-93
2022/12/28 08:53:47;;;;;;;11.82;4.78;;;;;;;3.11;100.00;99884.59;4423070;32;20078;-93
2022/12/28 08:56:15;;;;;;;10.60;5.78;;;;;;;3.29;100.00;99888.19;4408695;32;20605;-94
2022/12/28 08:58:44;;;;;;;11.18;5.72;;;;;;;3.56;100.00;99885.34;4409074;32;20129;-94
2022/12/28 09:01:16;;;;;;;8.63;4.62;;;;;;;3.66;100.00;99884.03;4408752;32;20466;-94
2022/12/28 09:03:46;;;;;;;11.63;6.33;;;;;;;3.91;98.14;99890.78;4422974;32;20124;-93
2022/12/28 09:06:15;;;;;;;11.25;6.15;;;;;;;4.22;97.66;99892.84;4409108;32;20102;-94
2022/12/28 09:08:43;;;;;;;12.10;6.03;;;;;;;4.40;96.00;99885.97;4423413;32;20102;-96
2022/12/28 09:11:30;;;;;;;11.52;6.40;;;;;;;4.52;94.76;99881.97;4400771;32;20176;-93
2022/12/28 09:13:58;;;;;;;10.98;5.10;;;;;;;4.67;93.19;99879.59;4422377;32;20097;-93
2022/12/28 09:16:26;;;;;;;13.07;4.95;;;;;;;4.72;93.44;99872.41;4422435;32;20164;-94
2022/12/28 09:18:58;;;;;;;8.15;4.93;;;;;;;4.82;90.53;99865.88;4422789;32;20089;-93
2022/12/28 09:21:27;;;;;;;10.65;5.47;;;;;;;4.98;90.56;99858.16;4408526;32;20151;-94
2022/12/28 09:23:55;;;;;;;13.38;5.37;;;;;;;5.01;89.96;99850.25;4409790;32;20490;-93
2022/12/28 09:26:26;;;;;;;10.30;5.28;;;;;;;4.81;90.47;99853.78;4424640;32;20159;-94
2022/12/28 09:28:55;;;;;;;10.18;5.47;;;;;;;4.62;89.81;99851.25;4424397;32;20515;-95
2022/12/28 09:31:25;;;;;;;15.40;6.50;;;;;;;4.58;89.84;99850.53;4410622;32;20467;-93
2022/12/28 09:33:59;;;;;;;12.95;5.85;;;;;;;4.34;88.91;99842.13;4424514;32;20073;-94
2022/12/28 09:36:46;;;;;;;15.57;6.07;;;;;;;4.13;89.64;99838.78;4412754;32;20163;-93
2022/12/28 09:39:16;;;;;;;15.40;6.95;;;;;;;4.18;90.26;99831.66;4424361;32;20097;-94
2022/12/28 09:41:48;;;;;;;14.25;6.35;;;;;;;4.20;92.11;99836.75;4424657;32;20519;-93
2022/12/28 09:44:24;;;;;;;8.20;3.70;;;;;;;4.28;91.44;99837.25;4410466;32;20082;-94
2022/12/28 09:47:00;;;;;;;17.60;6.30;;;;;;;4.27;88.64;99835.56;4424302;32;20160;-94
2022/12/28 09:49:59;;;;;;;11.77;5.50;;;;;;;4.36;90.93;99835.16;4423246;32;20159;-94
2022/12/28 09:52:33;;;;;;;9.98;5.50;;;;;;;4.55;90.30;99831.69;4424156;32;20153;-94
2022/12/28 09:55:10;;;;;;;12.68;6.15;;;;;;;4.64;88.01;99828.66;4410538;32;20078;-93
2022/12/28 09:57:41;;;;;;;10.02;4.57;;;;;;;4.84;89.36;99826.84;4410565;32;20110;-94
2022/12/28 10:00:16;;;;;;;9.30;4.00;;;;;;;4.85;86.37;99818.16;4410618;32;20607;-94
2022/12/28 10:02:48;;;;;;;9.23;4.03;;;;;;;4.69;85.52;99818.87;4410894;32;20085;-94
2022/12/28 10:05:15;;;;;;;7.15;4.05;;;;;;;4.88;85.72;99805.84;4410709;32;20169;-93
2022/12/28 10:07:43;;;;;;;4.45;3.20;;;;;;;4.95;85.22;99798.59;4424203;32;20121;-93
2022/12/28 10:10:16;;;;;;;12.48;3.80;;;;;;;5.02;84.21;99802.56;4424281;32;20165;-93
2022/12/28 10:12:44;;;;;;;5.87;3.15;;;;;;;4.97;84.67;99794.19;4410568;32;20090;-95
2022/12/28 10:15:13;;;;;;;8.50;4.30;;;;;;;5.11;84.16;99794.31;4424394;32;20458;-95
2022/12/28 10:17:41;;;;;;;8.57;3.40;;;;;;;5.25;83.37;99787.59;4424006;32;20263;-96
2022/12/28 10:20:19;;;;;;;5.72;3.30;;;;;;;5.30;81.90;99786.44;4424057;32;20101;-93
2022/12/28 10:22:54;;;;;;;8.85;3.95;;;;;;;5.36;79.84;99793.09;4380505;32;20553;-94
2022/12/28 10:25:23;;;;;;;9.98;4.90;;;;;;;5.45;78.90;99799.56;4393646;32;20164;-94
2022/12/28 10:27:51;;;;;;;8.98;3.70;;;;;;;5.57;80.57;99793.75;4380183;32;20106;-93
2022/12/28 10:30:25;;;;;;;6.10;3.87;;;;;;;5.46;80.19;99785.66;4393591;32;20616;-93
2022/12/28 10:32:58;;;;;;;11.38;5.45;;;;;;;5.61;80.29;99792.66;4393829;32;20108;-93
2022/12/28 10:35:36;;;;;;;11.70;5.15;;;;;;;5.55;79.74;99797.34;4393659;32;20113;-94
2022/12/28 10:38:21;;;;;;;11.15;5.62;;;;;;;5.65;79.12;99794.16;4392609;32;20121;-94
2022/12/28 10:40:59;;;;;;;14.52;5.95;;;;;;;5.82;81.09;99798.47;4393962;32;20117;-94
2022/12/28 10:43:29;;;;;;;10.68;4.53;;;;;;;6.07;82.82;99802.41;4379915;32;20159;-94
2022/12/28 10:45:57;;;;;;;9.60;4.50;;;;;;;6.41;81.40;99800.56;4392440;32;20567;-94
2022/12/28 10:48:33;;;;;;;6.85;4.30;;;;;;;6.34;79.49;99794.00;4393748;32;20106;-95
2022/12/28 10:51:12;;;;;;;11.25;4.87;;;;;;;6.39;78.68;99797.22;4393217;32;20152;-94
2022/12/28 10:53:46;;;;;;;12.65;5.37;;;;;;;6.18;78.50;99800.06;4393278;32;20137;-93
2022/12/28 10:56:13;;;;;;;;;;;;;;;6.15;77.63;99795.03;4380220;32;20094;-94
2022/12/28 10:58:45;;;;;;;10.15;5.97;;;;;;;6.14;78.51;99802.91;4393878;32;20029;-96
2022/12/28 11:01:12;;;;;;;9.93;5.25;;;;;;;6.09;80.11;99797.13;4381674;32;20094;-96
2022/12/28 11:03:41;;;;;;;9.35;5.22;;;;;;;6.10;81.39;99798.78;4395277;32;20091;-96
2022/12/28 11:06:19;;;;;;;13.02;6.18;;;;;;;5.93;80.25;99795.28;4395114;32;20479;-96
2022/12/28 11:09:01;;;;;;;10.75;4.60;;;;;;;5.98;82.02;99792.47;4382300;32;20103;-96
2022/12/28 11:11:29;;;;;;;12.35;5.72;;;;;;;6.08;81.42;99787.63;4381313;32;20111;-95
2022/12/28 11:17:32;;;;;;;8.55;4.43;;;;;;;6.08;82.97;99785.88;4425255;32;20139;-95
2022/12/28 11:20:07;;;;;;;7.50;4.22;;;;;;;5.90;83.15;99773.81;4412051;32;20102;-96
2022/12/28 11:22:34;;;;;;;8.13;4.60;;;;;;;5.66;83.82;99771.59;4399307;32;20468;-95
2022/12/28 11:25:04;;;;;;;8.80;4.90;;;;;;;5.55;84.94;99766.16;4425499;32;20140;-96
2022/12/28 11:27:33;;;;;;;8.98;4.65;;;;;;;5.63;84.21;99769.16;4411556;32;20575;-95
2022/12/28 11:30:02;;;;;;;8.77;5.32;;;;;;;5.63;83.42;99766.56;4411370;32;20152;-96
2022/12/28 11:32:37;;;;;;;10.00;5.20;;;;;;;5.53;84.82;99760.16;4411641;32;20175;-95
2022/12/28 11:35:05;;;;;;;8.50;4.65;;;;;;;5.56;85.84;99760.03;4410448;32;20467;-96
2022/12/28 11:37:32;;;;;;;8.25;4.15;;;;;;;5.44;85.13;99741.56;4399022;32;20450;-96
2022/12/28 11:39:59;;;;;;;19.05;5.62;;;;;;;5.38;85.98;99734.09;4399080;32;20134;-95
2022/12/28 11:42:36;;;;;;;10.43;4.80;;;;;;;5.43;87.21;99736.44;4399064;32;20506;-96
2022/12/28 11:45:15;;;;;;;10.70;5.35;;;;;;;5.54;85.41;99741.94;4415861;32;20059;-96
2022/12/28 11:47:44;;;;;;;7.82;4.82;;;;;;;5.59;85.33;99733.87;4390107;32;20149;-96
2022/12/28 11:50:41;;;;;;;6.78;3.83;;;;;;;5.69;85.90;99733.31;4414441;32;20132;-96
2022/12/28 11:56:45;;;;;;;9.43;4.37;;;;;;;5.78;84.61;99723.31;4425266;32;20162;-96
2022/12/28 11:59:24;;;;;;;9.07;4.97;;;;;;;5.86;83.46;99711.59;4399192;32;20081;-96
2022/12/28 12:02:05;;;;;;;6.18;3.60;;;;;;;6.00;85.88;99702.22;4399016;32;20118;-96
2022/12/28 12:04:45;;;;;;;6.62;3.17;;;;;;;6.13;83.93;99703.22;4399012;32;20173;-96
2022/12/28 12:07:19;;;;;;;7.15;3.58;;;;;;;6.12;83.74;99706.75;4386719;32;20461;-96
2022/12/28 12:09:49;;;;;;;5.72;3.40;;;;;;;6.31;81.40;99696.13;4399135;32;20661;-96
2022/12/28 12:12:16;;;;;;;7.55;4.25;;;;;;;6.57;81.05;99692.03;4386585;32;20564;-96
2022/12/28 12:15:02;;;;;;;8.07;3.72;;;;;;;6.68;82.09;99683.59;4399056;32;20109;-96
2022/12/28 12:17:50;;;;;;;6.12;3.87;;;;;;;6.81;81.83;99681.09;4389452;32;20090;-96
2022/12/28 12:21:04;;;;;;;6.20;3.47;;;;;;;6.73;82.36;99678.12;4399592;32;20430;-97
2022/12/28 12:27:42;;;;;;;7.93;3.70;;;;;;;6.43;83.33;99668.56;4402432;32;20117;-96